createdAt,value
2023-04-18T00:00:30.869Z,11.53
2023-04-18T00:03:03.917Z,11.47
2023-04-18T00:05:31.516Z,11.42
2023-04-18T00:07:58.611Z,11.42
2023-04-18T00:10:26.016Z,11.47
2023-04-18T00:12:52.857Z,11.44
2023-04-18T00:15:19.717Z,11.40
2023-04-18T00:17:48.430Z,11.42
2023-04-18T00:20:15.420Z,11.45
2023-04-18T00:22:46.768Z,11.32
2023-04-18T00:25:13.756Z,11.25
2023-04-18T00:27:41.906Z,11.26
2023-04-18T00:30:09.453Z,11.28
2023-04-18T00:32:36.416Z,11.30
2023-04-18T00:35:08.562Z,11.40
2023-04-18T00:37:35.680Z,11.36
2023-04-18T00:40:02.675Z,11.33
2023-04-18T00:42:29.635Z,11.30
2023-04-18T00:44:56.465Z,11.31
2023-04-18T00:47:23.799Z,11.29
2023-04-18T00:49:50.799Z,11.31
2023-04-18T00:52:18.654Z,11.30
2023-04-18T00:54:45.628Z,11.28
2023-04-18T00:57:13.311Z,11.29
2023-04-18T00:59:40.843Z,11.33
2023-04-18T01:02:07.817Z,11.26
2023-04-18T01:04:35.006Z,11.24
2023-04-18T01:07:02.677Z,11.20
2023-04-18T01:09:29.882Z,11.24
2023-04-18T01:11:57.080Z,11.15
2023-04-18T01:14:24.146Z,11.14
2023-04-18T01:16:51.264Z,11.14
2023-04-18T01:19:18.471Z,11.14
2023-04-18T01:21:45.648Z,11.16
2023-04-18T01:24:16.918Z,11.13
2023-04-18T01:26:45.503Z,11.19
2023-04-18T01:29:12.520Z,11.15
2023-04-18T01:31:40.925Z,11.18
2023-04-18T01:34:08.499Z,11.08
2023-04-18T01:36:36.575Z,11.15
2023-04-18T01:39:03.838Z,11.17
2023-04-18T01:41:32.810Z,11.12
2023-04-18T01:44:00.726Z,11.06
2023-04-18T01:46:28.268Z,11.02
2023-04-18T01:48:55.885Z,11.01
2023-04-18T01:51:22.887Z,11.00
2023-04-18T01:53:49.962Z,10.95
2023-04-18T01:56:16.979Z,11.00
2023-04-18T01:58:43.946Z,11.05
2023-04-18T02:01:10.969Z,11.04
2023-04-18T02:03:37.958Z,11.00
2023-04-18T02:06:06.281Z,10.98
2023-04-18T02:08:36.049Z,10.84
2023-04-18T02:11:03.088Z,10.88
2023-04-18T02:13:29.988Z,10.86
2023-04-18T02:15:56.933Z,10.92
2023-04-18T02:18:25.621Z,10.94
2023-04-18T02:20:52.827Z,10.92
2023-04-18T02:23:19.673Z,10.92
2023-04-18T02:25:46.538Z,10.86
2023-04-18T02:28:13.562Z,10.83
2023-04-18T02:30:40.491Z,10.83
2023-04-18T02:33:07.327Z,10.83
2023-04-18T02:35:34.378Z,10.94
2023-04-18T02:38:01.378Z,10.94
2023-04-18T02:40:28.126Z,10.93
2023-04-18T02:42:54.905Z,10.96
2023-04-18T02:45:21.845Z,10.89
2023-04-18T02:47:55.528Z,10.87
2023-04-18T02:50:24.185Z,10.87
2023-04-18T02:52:51.156Z,10.79
2023-04-18T02:55:18.183Z,10.88
2023-04-18T02:57:45.057Z,10.97
2023-04-18T03:00:13.728Z,10.96
2023-04-18T03:02:40.971Z,10.90
2023-04-18T03:05:08.676Z,10.95
2023-04-18T03:07:35.871Z,10.87
2023-04-18T03:10:02.719Z,10.96
2023-04-18T03:12:29.886Z,10.95
2023-04-18T03:14:56.661Z,10.92
2023-04-18T03:17:23.860Z,10.91
2023-04-18T03:19:50.793Z,10.89
2023-04-18T03:22:17.902Z,10.87
2023-04-18T03:24:44.822Z,10.87
2023-04-18T03:27:13.341Z,10.91
2023-04-18T03:29:40.390Z,10.84
2023-04-18T03:32:07.204Z,10.88
2023-04-18T03:34:34.272Z,10.89
2023-04-18T03:37:01.312Z,10.90
2023-04-18T03:39:28.144Z,10.88
2023-04-18T03:41:55.013Z,10.87
2023-04-18T03:44:21.817Z,10.92
2023-04-18T03:46:48.673Z,10.82
2023-04-18T03:49:15.540Z,10.86
2023-04-18T03:51:47.979Z,10.79
2023-04-18T03:54:16.243Z,10.78
2023-04-18T03:56:43.847Z,10.80
2023-04-18T03:59:11.548Z,10.83
2023-04-18T04:01:38.616Z,10.83
2023-04-18T04:04:05.669Z,10.78
2023-04-18T04:06:32.838Z,10.82
2023-04-18T04:08:59.631Z,10.87
2023-04-18T04:11:27.006Z,10.80
2023-04-18T04:13:53.826Z,10.81
2023-04-18T04:16:20.681Z,10.78
2023-04-18T04:18:47.732Z,10.85
2023-04-18T04:21:14.646Z,10.83
2023-04-18T04:23:46.318Z,10.86
2023-04-18T04:26:15.244Z,10.91
2023-04-18T04:28:43.021Z,10.84
2023-04-18T04:31:10.609Z,10.91
2023-04-18T04:33:39.192Z,10.90
2023-04-18T04:36:09.703Z,10.92
2023-04-18T04:38:38.594Z,10.95
2023-04-18T04:41:09.505Z,10.96
2023-04-18T04:43:36.701Z,11.06
2023-04-18T04:46:04.553Z,11.12
2023-04-18T04:48:31.532Z,10.99
2023-04-18T04:50:59.984Z,11.05
2023-04-18T04:53:28.329Z,11.09
2023-04-18T04:55:55.328Z,11.08
2023-04-18T04:58:22.138Z,11.05
2023-04-18T05:00:50.956Z,11.04
2023-04-18T05:03:18.569Z,11.19
2023-04-18T05:05:45.879Z,11.20
2023-04-18T05:08:12.669Z,11.28
2023-04-18T05:10:39.829Z,11.26
2023-04-18T05:13:06.616Z,11.33
2023-04-18T05:15:33.426Z,11.36
2023-04-18T05:18:00.358Z,11.37
2023-04-18T05:20:27.175Z,11.36
2023-04-18T05:22:53.996Z,11.40
2023-04-18T05:25:21.010Z,11.42
2023-04-18T05:27:47.874Z,11.44
2023-04-18T05:30:14.861Z,11.49
2023-04-18T05:32:41.953Z,11.31
2023-04-18T05:35:09.517Z,11.37
2023-04-18T05:37:36.376Z,11.49
2023-04-18T05:40:05.266Z,11.44
2023-04-18T05:42:32.243Z,11.63
2023-04-18T05:44:59.057Z,11.61
2023-04-18T05:47:28.631Z,11.60
2023-04-18T05:49:55.837Z,11.71
2023-04-18T05:52:22.877Z,11.60
2023-04-18T05:54:49.952Z,11.72
2023-04-18T05:57:16.817Z,11.84
2023-04-18T05:59:44.147Z,11.94
2023-04-18T06:02:13.824Z,11.82
2023-04-18T06:04:42.091Z,11.93
2023-04-18T06:07:10.015Z,11.90
2023-04-18T06:09:37.010Z,11.97
2023-04-18T06:12:04.302Z,11.96
2023-04-18T06:14:31.341Z,11.90
2023-04-18T06:16:58.433Z,11.89
2023-04-18T06:19:25.259Z,11.77
2023-04-18T06:21:53.059Z,11.27
2023-04-18T06:24:19.978Z,11.35
2023-04-18T06:26:47.467Z,11.42
2023-04-18T06:29:14.318Z,11.18
2023-04-18T06:31:42.360Z,11.10
2023-04-18T06:34:09.441Z,10.84
2023-04-18T06:36:36.457Z,10.85
2023-04-18T06:39:03.673Z,10.56
2023-04-18T06:41:31.246Z,10.83
2023-04-18T06:44:02.926Z,10.93
2023-04-18T06:46:32.026Z,11.12
2023-04-18T06:48:59.188Z,11.25
2023-04-18T06:51:26.058Z,11.09
2023-04-18T06:53:53.904Z,10.95
2023-04-18T06:56:21.702Z,11.14
2023-04-18T06:58:50.263Z,11.34
2023-04-18T07:01:17.267Z,11.34
2023-04-18T07:03:44.399Z,11.44
2023-04-18T07:06:11.409Z,11.54
2023-04-18T07:08:38.396Z,11.68
2023-04-18T07:11:06.239Z,11.77
2023-04-18T07:13:33.402Z,12.00
2023-04-18T07:16:01.503Z,12.10
2023-04-18T07:18:37.661Z,11.98
2023-04-18T07:21:07.860Z,11.97
2023-04-18T07:23:35.663Z,11.72
2023-04-18T07:26:03.162Z,11.90
2023-04-18T07:28:31.611Z,12.23
2023-04-18T07:30:59.223Z,12.33
2023-04-18T07:33:26.097Z,12.54
2023-04-18T07:35:56.202Z,12.45
2023-04-18T07:38:23.494Z,12.44
2023-04-18T07:41:00.899Z,12.56
2023-04-18T07:43:27.785Z,12.75
2023-04-18T07:45:54.981Z,12.68
2023-04-18T07:48:30.979Z,12.62
2023-04-18T07:50:57.874Z,12.83
2023-04-18T07:53:24.757Z,12.61
2023-04-18T07:55:51.729Z,12.71
2023-04-18T07:58:18.539Z,13.05
2023-04-18T08:00:45.425Z,13.11
2023-04-18T08:03:13.237Z,13.03
2023-04-18T08:05:41.431Z,13.25
2023-04-18T08:08:10.321Z,13.45
2023-04-18T08:10:38.377Z,13.59
2023-04-18T08:13:05.299Z,13.57
2023-04-18T08:15:32.956Z,13.22
2023-04-18T08:18:01.249Z,13.50
2023-04-18T08:20:28.441Z,13.63
2023-04-18T08:25:25.173Z,13.20
2023-04-18T08:27:51.932Z,13.39
2023-04-18T08:30:18.922Z,13.25
2023-04-18T08:32:46.029Z,13.32
2023-04-18T08:35:13.005Z,13.66
2023-04-18T08:37:39.916Z,13.53
2023-04-18T08:40:07.700Z,13.67
2023-04-18T08:42:36.090Z,13.86
2023-04-18T08:45:04.335Z,13.62
2023-04-18T08:47:31.447Z,13.86
2023-04-18T08:49:58.872Z,13.81
2023-04-18T08:52:28.565Z,13.77
2023-04-18T08:54:57.264Z,13.80
2023-04-18T08:57:27.059Z,13.88
2023-04-18T08:59:55.585Z,14.02
2023-04-18T09:02:23.538Z,14.06
2023-04-18T09:04:53.687Z,14.04
2023-04-18T09:07:30.750Z,13.96
2023-04-18T09:09:58.049Z,13.75
2023-04-18T09:12:27.376Z,13.36
2023-04-18T09:14:59.839Z,13.19
2023-04-18T09:17:49.580Z,12.96
2023-04-18T09:20:38.471Z,12.89
2023-04-18T09:23:14.894Z,12.81
2023-04-18T09:25:44.534Z,12.69
2023-04-18T09:28:31.926Z,12.82
2023-04-18T09:31:19.262Z,13.15
2023-04-18T09:33:54.590Z,13.28
2023-04-18T09:36:29.210Z,13.64
2023-04-18T09:38:57.180Z,13.36
2023-04-18T09:41:24.269Z,13.89
2023-04-18T09:44:07.960Z,13.32
2023-04-18T09:46:34.854Z,13.17
2023-04-18T09:49:02.311Z,13.61
2023-04-18T09:51:31.533Z,13.50
2023-04-18T09:53:58.440Z,13.84
2023-04-18T09:56:28.058Z,13.71
2023-04-18T09:59:09.251Z,13.75
2023-04-18T10:01:36.876Z,13.71
2023-04-18T10:04:08.018Z,14.06
2023-04-18T10:06:38.723Z,14.28
2023-04-18T10:09:06.554Z,14.40
2023-04-18T10:11:33.650Z,14.55
2023-04-18T10:14:08.018Z,14.50
2023-04-18T10:16:36.393Z,14.71
2023-04-18T10:19:25.305Z,15.08
2023-04-18T10:21:59.756Z,14.82
2023-04-18T10:24:47.671Z,15.10
2023-04-18T10:27:15.322Z,14.84
2023-04-18T10:29:54.678Z,15.20
2023-04-18T10:32:24.219Z,15.24
2023-04-18T10:34:53.614Z,15.13
2023-04-18T10:37:20.687Z,14.87
2023-04-18T10:39:58.454Z,14.73
2023-04-18T10:42:48.383Z,14.97
2023-04-18T10:45:22.867Z,14.88
2023-04-18T10:47:50.768Z,14.49
2023-04-18T10:50:18.211Z,14.05
2023-04-18T10:52:45.069Z,14.18
2023-04-18T10:55:16.948Z,14.34
2023-04-18T10:57:48.864Z,14.41
2023-04-18T11:00:17.821Z,14.56
2023-04-18T11:02:57.956Z,14.61
2023-04-18T11:05:29.315Z,14.78
2023-04-18T11:07:56.426Z,14.87
2023-04-18T11:10:25.839Z,14.85
2023-04-18T11:12:53.690Z,14.86
2023-04-18T11:15:23.309Z,14.98
2023-04-18T11:17:57.464Z,15.19
2023-04-18T11:20:25.030Z,15.20
2023-04-18T11:23:00.063Z,15.36
2023-04-18T11:25:36.604Z,15.47
2023-04-18T11:28:04.839Z,15.37
2023-04-18T11:30:41.853Z,15.39
2023-04-18T11:33:12.899Z,15.37
2023-04-18T11:35:41.886Z,15.03
2023-04-18T11:38:10.603Z,15.00
2023-04-18T11:40:38.147Z,14.76
2023-04-18T11:43:07.260Z,14.73
2023-04-18T11:45:34.264Z,14.77
2023-04-18T11:48:01.537Z,14.68
2023-04-18T11:50:28.442Z,14.62
2023-04-18T11:52:56.171Z,14.94
2023-04-18T11:55:25.369Z,15.01
2023-04-18T11:57:59.653Z,15.14
2023-04-18T12:00:37.748Z,15.17
2023-04-18T12:03:08.446Z,15.15
2023-04-18T12:05:38.456Z,15.73
2023-04-18T12:08:13.814Z,16.21
2023-04-18T12:10:48.478Z,16.36
2023-04-18T12:13:15.405Z,16.16
2023-04-18T12:15:46.666Z,16.72
2023-04-18T12:18:15.465Z,17.15
2023-04-18T12:20:52.514Z,16.43
2023-04-18T12:23:40.383Z,16.65
2023-04-18T12:26:23.061Z,16.38
2023-04-18T12:28:51.481Z,16.46
2023-04-18T12:31:18.353Z,16.08
2023-04-18T12:33:45.310Z,16.03
2023-04-18T12:36:12.148Z,16.18
2023-04-18T12:38:38.939Z,16.17
2023-04-18T12:41:06.188Z,16.00
2023-04-18T12:43:33.112Z,16.15
2023-04-18T12:46:00.169Z,15.93
2023-04-18T12:48:27.034Z,15.82
2023-04-18T12:50:53.845Z,15.48
2023-04-18T12:53:20.666Z,15.55
2023-04-18T12:55:47.595Z,15.41
2023-04-18T12:58:18.692Z,15.48
2023-04-18T13:00:46.035Z,15.45
2023-04-18T13:03:13.598Z,15.14
2023-04-18T13:05:41.193Z,15.28
2023-04-18T13:08:16.769Z,15.06
2023-04-18T13:10:46.318Z,15.13
2023-04-18T13:13:13.277Z,14.99
2023-04-18T13:15:40.164Z,14.91
2023-04-18T13:18:07.222Z,14.84
2023-04-18T13:20:34.866Z,14.82
2023-04-18T13:23:03.310Z,14.78
2023-04-18T13:25:30.171Z,14.80
2023-04-18T13:27:58.648Z,14.74
2023-04-18T13:30:25.739Z,14.80
2023-04-18T13:32:52.746Z,14.58
2023-04-18T13:35:19.629Z,14.77
2023-04-18T13:37:46.440Z,14.71
2023-04-18T13:40:13.814Z,14.78
2023-04-18T13:42:40.655Z,14.74
2023-04-18T13:45:07.888Z,14.71
2023-04-18T13:47:35.147Z,14.76
2023-04-18T13:50:02.129Z,14.58
2023-04-18T13:52:29.031Z,14.76
2023-04-18T13:54:55.947Z,14.75
2023-04-18T13:57:23.420Z,14.73
2023-04-18T13:59:50.283Z,14.75
2023-04-18T14:02:17.408Z,14.77
2023-04-18T14:04:44.664Z,14.84
2023-04-18T14:07:11.617Z,14.79
2023-04-18T14:09:38.513Z,14.83
2023-04-18T14:12:08.367Z,14.69
2023-04-18T14:14:35.287Z,14.76
2023-04-18T14:17:02.181Z,14.68
2023-04-18T14:19:29.747Z,14.77
2023-04-18T14:21:56.593Z,14.74
2023-04-18T14:24:23.453Z,14.77
2023-04-18T14:26:53.096Z,14.73
2023-04-18T14:29:19.853Z,14.56
2023-04-18T14:31:46.792Z,14.43
2023-04-18T14:34:13.663Z,14.33
2023-04-18T14:36:40.963Z,14.44
2023-04-18T14:39:08.543Z,14.41
2023-04-18T14:41:35.362Z,14.33
2023-04-18T14:44:03.638Z,14.38
2023-04-18T14:46:30.993Z,14.18
2023-04-18T14:48:58.087Z,14.11
2023-04-18T14:51:24.919Z,14.24
2023-04-18T14:53:51.846Z,14.29
2023-04-18T14:56:21.254Z,14.33
2023-04-18T14:58:48.253Z,14.54
2023-04-18T15:01:15.203Z,14.54
2023-04-18T15:03:42.354Z,14.53
2023-04-18T15:06:09.186Z,14.49
2023-04-18T15:08:36.246Z,14.56
2023-04-18T15:11:07.560Z,14.71
2023-04-18T15:13:34.798Z,14.74
2023-04-18T15:16:02.048Z,14.57
2023-04-18T15:18:29.022Z,14.74
2023-04-18T15:20:57.130Z,14.73
2023-04-18T15:23:24.135Z,14.63
2023-04-18T15:25:51.094Z,14.60
2023-04-18T15:28:18.759Z,14.65
2023-04-18T15:30:46.066Z,14.63
2023-04-18T15:33:13.781Z,14.69
2023-04-18T15:35:40.622Z,14.58
2023-04-18T15:38:07.819Z,14.52
2023-04-18T15:40:36.366Z,14.46
2023-04-18T15:43:03.314Z,14.39
2023-04-18T15:45:30.580Z,14.47
2023-04-18T15:47:57.553Z,14.52
2023-04-18T15:50:24.491Z,14.47
2023-04-18T15:52:51.446Z,14.54
2023-04-18T15:55:18.361Z,14.53
2023-04-18T15:57:45.384Z,14.43
2023-04-18T16:00:16.334Z,14.57
2023-04-18T16:02:45.954Z,14.49
2023-04-18T16:05:14.089Z,14.42
2023-04-18T16:07:42.666Z,14.32
2023-04-18T16:10:11.226Z,14.22
2023-04-18T16:12:39.294Z,14.12
2023-04-18T16:15:08.798Z,14.29
2023-04-18T16:17:36.968Z,14.06
2023-04-18T16:20:06.274Z,13.92
2023-04-18T16:22:33.663Z,13.88
2023-04-18T16:25:00.560Z,13.74
2023-04-18T16:27:27.476Z,13.89
2023-04-18T16:29:54.684Z,13.88
2023-04-18T16:32:21.702Z,13.95
2023-04-18T16:34:48.724Z,13.91
2023-04-18T16:37:16.291Z,13.92
2023-04-18T16:39:43.651Z,13.80
2023-04-18T16:42:11.038Z,13.86
2023-04-18T16:44:39.587Z,13.77
2023-04-18T16:47:08.406Z,13.65
2023-04-18T16:49:35.838Z,13.54
2023-04-18T16:52:02.841Z,13.50
2023-04-18T16:54:29.979Z,13.51
2023-04-18T16:56:57.228Z,13.49
2023-04-18T16:59:24.481Z,13.34
2023-04-18T17:01:51.445Z,13.31
2023-04-18T17:04:18.463Z,13.20
2023-04-18T17:06:45.550Z,13.26
2023-04-18T17:09:14.661Z,13.28
2023-04-18T17:11:41.929Z,13.19
2023-04-18T17:14:09.337Z,13.17
2023-04-18T17:16:39.063Z,13.06
2023-04-18T17:19:06.488Z,13.04
2023-04-18T17:21:34.827Z,12.95
2023-04-18T17:24:03.939Z,12.92
2023-04-18T17:26:31.266Z,12.86
2023-04-18T17:28:58.563Z,12.78
2023-04-18T17:31:25.456Z,12.79
2023-04-18T17:33:53.082Z,12.62
2023-04-18T17:36:20.089Z,12.67
2023-04-18T17:38:49.606Z,12.73
2023-04-18T17:41:21.572Z,12.64
2023-04-18T17:43:50.820Z,12.53
2023-04-18T17:46:17.994Z,12.48
2023-04-18T17:48:44.874Z,12.49
2023-04-18T17:51:11.746Z,12.55
2023-04-18T17:53:38.536Z,12.44
2023-04-18T17:56:05.553Z,12.38
2023-04-18T17:58:32.384Z,12.29
2023-04-18T18:00:59.260Z,12.34
2023-04-18T18:03:26.233Z,12.36
2023-04-18T18:05:55.099Z,12.28
2023-04-18T18:08:22.798Z,12.35
2023-04-18T18:10:50.015Z,12.27
2023-04-18T18:13:16.972Z,12.28
2023-04-18T18:15:43.957Z,12.24
2023-04-18T18:18:11.160Z,12.21
2023-04-18T18:20:38.176Z,12.27
2023-04-18T18:23:04.990Z,12.30
2023-04-18T18:25:31.877Z,12.27
2023-04-18T18:27:58.693Z,12.22
2023-04-18T18:30:25.589Z,12.13
2023-04-18T18:32:53.634Z,12.11
2023-04-18T18:35:20.839Z,12.14
2023-04-18T18:37:47.905Z,12.08
2023-04-18T18:40:15.213Z,12.13
2023-04-18T18:42:42.738Z,12.00
2023-04-18T18:45:10.085Z,11.96
2023-04-18T18:47:39.587Z,11.97
2023-04-18T18:50:07.808Z,11.95
2023-04-18T18:52:34.685Z,12.03
2023-04-18T18:55:01.680Z,11.91
2023-04-18T18:57:28.594Z,11.91
2023-04-18T18:59:56.029Z,11.95
2023-04-18T19:02:23.411Z,11.91
2023-04-18T19:04:50.788Z,11.90
2023-04-18T19:07:17.890Z,11.93
2023-04-18T19:09:46.553Z,11.94
2023-04-18T19:12:13.465Z,11.97
2023-04-18T19:14:42.263Z,11.99
2023-04-18T19:17:09.386Z,11.94
2023-04-18T19:19:36.358Z,11.93
2023-04-18T19:22:03.397Z,11.93
2023-04-18T19:24:32.147Z,11.97
2023-04-18T19:26:59.863Z,11.84
2023-04-18T19:29:26.889Z,11.88
2023-04-18T19:31:53.900Z,11.87
2023-04-18T19:34:22.298Z,11.84
2023-04-18T19:36:49.309Z,11.78
2023-04-18T19:39:17.539Z,11.72
2023-04-18T19:41:44.474Z,11.75
2023-04-18T19:44:11.286Z,11.77
2023-04-18T19:46:38.287Z,11.73
2023-04-18T19:49:05.211Z,11.79
2023-04-18T19:51:34.494Z,11.74
2023-04-18T19:54:01.638Z,11.76
2023-04-18T19:56:28.456Z,11.76
2023-04-18T19:58:55.805Z,11.86
2023-04-18T20:01:24.299Z,11.74
2023-04-18T20:03:51.647Z,11.82
2023-04-18T20:06:18.717Z,11.72
2023-04-18T20:08:46.359Z,11.77
2023-04-18T20:11:14.395Z,11.78
2023-04-18T20:13:41.684Z,11.76
2023-04-18T20:16:09.384Z,11.71
2023-04-18T20:18:41.726Z,11.74
2023-04-18T20:21:10.084Z,11.67
2023-04-18T20:23:37.680Z,11.70
2023-04-18T20:26:04.740Z,11.74
2023-04-18T20:28:32.101Z,11.70
2023-04-18T20:31:06.840Z,11.69
2023-04-18T20:33:33.701Z,11.68
2023-04-18T20:36:00.572Z,11.64
2023-04-18T20:38:29.668Z,11.68
2023-04-18T20:40:59.015Z,11.60
2023-04-18T20:43:26.161Z,11.65
2023-04-18T20:45:54.032Z,11.65
2023-04-18T20:48:21.434Z,11.68
2023-04-18T20:50:51.537Z,11.56
2023-04-18T20:53:26.164Z,11.57
2023-04-18T20:55:53.136Z,11.55
2023-04-18T20:58:20.056Z,11.57
2023-04-18T21:00:48.432Z,11.49
2023-04-18T21:03:16.639Z,11.53
2023-04-18T21:05:44.689Z,11.47
2023-04-18T21:08:19.136Z,11.50
2023-04-18T21:10:45.929Z,11.45
2023-04-18T21:13:12.764Z,11.41
2023-04-18T21:15:41.983Z,11.45
2023-04-18T21:18:08.844Z,11.46
2023-04-18T21:20:37.016Z,11.49
2023-04-18T21:23:03.947Z,11.47
2023-04-18T21:25:30.796Z,11.44
2023-04-18T21:27:57.660Z,11.52
2023-04-18T21:30:24.473Z,11.43
2023-04-18T21:32:51.698Z,11.34
2023-04-18T21:35:20.197Z,11.36
2023-04-18T21:37:48.309Z,11.37
2023-04-18T21:40:15.293Z,11.36
2023-04-18T21:42:42.232Z,11.33
2023-04-18T21:45:11.112Z,11.40
2023-04-18T21:47:38.569Z,11.33
2023-04-18T21:50:05.918Z,11.43
2023-04-18T21:52:32.907Z,11.38
2023-04-18T21:54:59.734Z,11.40
2023-04-18T21:57:26.845Z,11.43
2023-04-18T21:59:54.912Z,11.44
2023-04-18T22:02:22.079Z,11.39
2023-04-18T22:04:49.036Z,11.51
2023-04-18T22:07:16.023Z,11.45
2023-04-18T22:09:43.552Z,11.51
2023-04-18T22:12:10.387Z,11.57
2023-04-18T22:14:37.352Z,11.46
2023-04-18T22:17:04.968Z,11.36
2023-04-18T22:19:31.991Z,11.47
2023-04-18T22:21:59.001Z,11.42
2023-04-18T22:24:26.132Z,11.42
2023-04-18T22:26:53.659Z,11.39
2023-04-18T22:29:20.542Z,11.41
2023-04-18T22:31:47.412Z,11.43
2023-04-18T22:34:14.656Z,11.46
2023-04-18T22:36:42.938Z,11.51
2023-04-18T22:39:10.029Z,11.54
2023-04-18T22:41:36.854Z,11.41
2023-04-18T22:44:04.851Z,11.34
2023-04-18T22:46:33.009Z,11.08
2023-04-18T22:48:59.973Z,11.15
2023-04-18T22:51:28.958Z,11.20
2023-04-18T22:53:56.632Z,11.22
2023-04-18T22:56:23.550Z,11.25
2023-04-18T22:58:50.493Z,11.27
2023-04-18T23:01:18.020Z,11.27
2023-04-18T23:03:45.137Z,11.34
2023-04-18T23:06:12.285Z,11.31
2023-04-18T23:08:39.167Z,11.29
2023-04-18T23:11:06.095Z,11.31
2023-04-18T23:13:34.313Z,11.31
2023-04-18T23:16:01.347Z,11.30
2023-04-18T23:18:31.248Z,11.34
2023-04-18T23:21:00.234Z,11.31
2023-04-18T23:23:27.120Z,11.29
2023-04-18T23:25:54.010Z,11.25
2023-04-18T23:28:20.930Z,11.23
2023-04-18T23:30:50.197Z,11.30
2023-04-18T23:33:17.139Z,11.29
2023-04-18T23:35:44.084Z,11.28
2023-04-18T23:38:11.135Z,11.27
2023-04-18T23:40:38.058Z,11.23
2023-04-18T23:43:04.947Z,11.16
2023-04-18T23:45:31.775Z,11.17
2023-04-18T23:47:58.659Z,11.12
2023-04-18T23:50:25.616Z,11.12
2023-04-18T23:52:52.500Z,10.86
2023-04-18T23:55:19.341Z,11.00
2023-04-18T23:57:46.336Z,10.87
